Time;durP1;ratioP1;P1;durP2;ratioP2;P2;SDS_P1;SDS_P2;PMS_P1;PMS_P2;Temp;Humidity;BMP_temperature;BMP_pressure;BME280_temperature;BME280_humidity;BME280_pressure;Samples;Min_cycle;Max_cycle;Signal;HPM_P1;HPM_P2
2021/07/11 00:02:33;;;;;;;1.52;1.10;;;21.90;65.90;;;;;;5174068;27;27415;-61
2021/07/11 00:05:26;;;;;;;2.40;1.20;;;21.90;65.90;;;;;;5189457;27;27411;-59
2021/07/11 00:08:16;;;;;;;2.10;1.38;;;21.90;66.00;;;;;;5144383;27;27533;-59
2021/07/11 00:11:02;;;;;;;1.67;1.25;;;21.90;66.10;;;;;;5185482;27;27370;-60
2021/07/11 00:13:49;;;;;;;1.48;1.30;;;21.90;66.20;;;;;;5189465;27;27376;-59
2021/07/11 00:16:39;;;;;;;1.33;1.10;;;21.80;66.50;;;;;;5186256;27;27311;-60
2021/07/11 00:19:26;;;;;;;3.70;1.48;;;21.80;66.20;;;;;;5189619;27;27457;-59
2021/07/11 00:22:13;;;;;;;2.85;1.10;;;21.80;66.60;;;;;;5170503;27;27398;-59
2021/07/11 00:25:00;;;;;;;1.25;1.05;;;21.80;66.70;;;;;;5189527;27;27408;-59
2021/07/11 00:27:47;;;;;;;9.65;1.50;;;21.80;66.80;;;;;;5173676;27;27378;-60
2021/07/11 00:30:34;;;;;;;2.95;1.10;;;21.70;66.80;;;;;;5141763;27;27933;-59
2021/07/11 00:33:26;;;;;;;1.30;1.20;;;21.70;66.90;;;;;;5188052;27;27433;-59
2021/07/11 00:36:13;;;;;;;1.17;1.02;;;21.70;67.00;;;;;;5159590;27;27394;-60
2021/07/11 00:39:00;;;;;;;1.20;1.08;;;21.60;67.00;;;;;;5188593;27;27416;-60
2021/07/11 00:41:47;;;;;;;4.07;1.20;;;21.70;67.30;;;;;;5170208;27;27590;-60
2021/07/11 00:44:34;;;;;;;4.15;1.38;;;21.60;67.20;;;;;;5188189;27;27622;-59
2021/07/11 00:47:21;;;;;;;2.28;1.40;;;21.60;67.20;;;;;;5188420;27;27406;-59
2021/07/11 00:50:13;;;;;;;2.33;1.08;;;21.60;67.80;;;;;;5188472;27;27322;-61
2021/07/11 00:53:01;;;;;;;3.22;1.17;;;21.50;67.60;;;;;;5188257;27;28008;-59
2021/07/11 00:55:48;;;;;;;2.00;1.58;;;21.50;67.60;;;;;;5169869;27;27498;-58
2021/07/11 00:58:35;;;;;;;2.08;1.48;;;21.50;67.40;;;;;;5173650;27;27425;-59
2021/07/11 01:01:46;;;;;;;4.50;1.30;;;21.50;67.60;;;;;;5172828;27;27417;-63
2021/07/11 01:05:07;;;;;;;2.25;0.85;;;21.50;67.70;;;;;;5157054;27;27512;-60
2021/07/11 01:08:15;;;;;;;2.40;1.42;;;21.50;67.60;;;;;;5175465;27;27414;-61
2021/07/11 01:11:10;;;;;;;4.82;1.40;;;21.50;67.80;;;;;;5184457;27;27386;-58
2021/07/11 01:14:00;;;;;;;1.50;1.20;;;21.40;67.90;;;;;;5157073;27;27410;-60
2021/07/11 01:16:49;;;;;;;2.42;1.40;;;21.40;67.80;;;;;;5184462;27;27422;-59
2021/07/11 01:20:04;;;;;;;2.58;1.10;;;21.40;67.80;;;;;;5169538;27;27369;-61
2021/07/11 01:22:56;;;;;;;1.50;0.93;;;21.40;68.10;;;;;;5170335;27;27471;-60
2021/07/11 01:25:48;;;;;;;1.92;1.42;;;21.40;68.20;;;;;;5188510;27;27371;-60
2021/07/11 01:28:35;;;;;;;1.25;1.15;;;21.40;69.10;;;;;;5187333;27;27476;-60
2021/07/11 01:31:24;;;;;;;1.45;1.13;;;21.30;68.30;;;;;;5185029;27;27326;-59
2021/07/11 01:34:14;;;;;;;1.70;1.30;;;21.30;68.30;;;;;;5169996;27;27414;-60
2021/07/11 01:37:01;;;;;;;1.35;1.25;;;21.30;68.30;;;;;;5185039;27;27455;-62
2021/07/11 01:39:50;;;;;;;1.58;1.40;;;21.30;68.40;;;;;;5184526;27;27334;-59
2021/07/11 01:42:37;;;;;;;2.03;1.20;;;21.30;68.50;;;;;;5187468;27;27379;-63
2021/07/11 01:45:24;;;;;;;1.30;1.02;;;21.20;68.50;;;;;;5158181;27;27657;-60
2021/07/11 01:48:14;;;;;;;3.55;1.50;;;21.20;68.50;;;;;;5168629;27;27349;-60
2021/07/11 01:51:01;;;;;;;3.83;1.20;;;21.20;68.50;;;;;;5169501;27;27944;-63
2021/07/11 01:53:49;;;;;;;1.77;1.27;;;21.30;68.70;;;;;;5185725;27;27570;-63
2021/07/11 01:56:47;;;;;;;1.20;1.10;;;21.20;68.80;;;;;;5169631;27;27475;-61
2021/07/11 01:59:42;;;;;;;1.88;1.20;;;21.20;68.80;;;;;;5183542;27;27464;-63
2021/07/11 02:02:49;;;;;;;2.22;1.23;;;21.20;68.80;;;;;;5187656;27;27959;-61
2021/07/11 02:06:08;;;;;;;2.90;1.42;;;21.20;68.90;;;;;;5184057;27;27525;-62
2021/07/11 02:09:02;;;;;;;3.35;1.40;;;21.10;68.80;;;;;;5169916;27;27434;-64
2021/07/11 02:11:57;;;;;;;3.22;1.65;;;21.10;69.00;;;;;;5184459;27;27387;-61
2021/07/11 02:14:57;;;;;;;1.30;1.20;;;21.10;69.40;;;;;;5170304;27;27435;-60
2021/07/11 02:17:51;;;;;;;3.75;1.52;;;21.10;69.40;;;;;;5183379;27;27486;-60
2021/07/11 02:20:46;;;;;;;2.90;1.40;;;21.10;69.40;;;;;;5155854;27;27409;-61
2021/07/11 02:23:39;;;;;;;2.17;1.42;;;21.10;69.70;;;;;;5186197;27;27676;-60
2021/07/11 02:26:30;;;;;;;6.30;1.08;;;21.00;69.50;;;;;;5183545;27;27457;-61
2021/07/11 02:29:23;;;;;;;2.80;1.40;;;21.00;69.80;;;;;;5183205;27;27525;-61
2021/07/11 02:32:12;;;;;;;2.72;1.40;;;21.00;69.70;;;;;;5186351;27;27354;-61
2021/07/11 02:35:03;;;;;;;2.97;1.30;;;20.90;69.80;;;;;;5186518;27;27483;-61
2021/07/11 02:37:53;;;;;;;1.20;1.08;;;20.90;70.00;;;;;;5187180;27;27392;-62
2021/07/11 02:40:43;;;;;;;3.17;1.58;;;20.90;70.00;;;;;;5154303;27;27409;-60
2021/07/11 02:43:33;;;;;;;2.45;1.52;;;20.90;70.30;;;;;;5186424;27;27407;-62
2021/07/11 02:46:28;;;;;;;4.57;1.17;;;20.80;70.20;;;;;;5182777;27;27374;-61
2021/07/11 02:49:24;;;;;;;3.95;1.23;;;20.80;70.30;;;;;;5156940;27;27717;-61
2021/07/11 02:52:14;;;;;;;3.05;1.10;;;20.80;70.40;;;;;;5185153;27;27503;-60
2021/07/11 02:55:09;;;;;;;2.72;1.17;;;20.80;70.40;;;;;;5186290;27;27375;-60
2021/07/11 02:58:02;;;;;;;3.25;1.20;;;20.80;70.60;;;;;;5182731;27;27295;-62
2021/07/11 03:00:58;;;;;;;5.03;1.25;;;20.80;70.60;;;;;;5172904;27;27457;-61
2021/07/11 03:03:46;;;;;;;1.20;1.00;;;20.80;70.70;;;;;;5186483;27;27434;-60
2021/07/11 03:06:38;;;;;;;2.50;1.30;;;20.80;70.80;;;;;;5172105;27;27400;-61
2021/07/11 03:09:29;;;;;;;2.20;1.42;;;20.70;70.60;;;;;;5186424;27;27395;-60
2021/07/11 03:12:20;;;;;;;1.40;1.10;;;20.70;70.80;;;;;;5186455;27;27408;-60
2021/07/11 03:15:12;;;;;;;1.25;1.10;;;20.70;70.90;;;;;;5172718;27;27700;-59
2021/07/11 03:18:03;;;;;;;1.50;1.40;;;20.70;71.10;;;;;;5186282;27;27342;-60
2021/07/11 03:20:53;;;;;;;1.90;1.30;;;20.70;71.10;;;;;;5171573;27;27398;-61
2021/07/11 03:23:43;;;;;;;2.10;1.23;;;20.70;71.30;;;;;;5174930;27;27964;-60
2021/07/11 03:26:32;;;;;;;2.33;1.50;;;20.60;71.30;;;;;;5190414;27;27459;-61
2021/07/11 03:29:54;;;;;;;1.42;1.17;;;20.60;71.60;;;;;;5186126;27;27459;-60
2021/07/11 03:32:59;;;;;;;1.42;1.33;;;20.60;71.40;;;;;;5189486;27;27441;-59
2021/07/11 03:36:02;;;;;;;3.10;1.20;;;20.60;71.40;;;;;;5175964;27;27434;-60
2021/07/11 03:38:58;;;;;;;2.72;1.38;;;20.60;71.50;;;;;;5171253;27;27472;-60
2021/07/11 03:41:48;;;;;;;1.92;1.70;;;20.60;71.60;;;;;;5174190;27;27504;-61
2021/07/11 03:44:40;;;;;;;1.58;1.42;;;20.60;71.70;;;;;;5171060;27;27396;-59
2021/07/11 03:47:34;;;;;;;1.42;1.25;;;20.60;71.80;;;;;;5185677;27;27490;-63
2021/07/11 03:50:25;;;;;;;1.85;1.50;;;20.50;71.70;;;;;;5157355;27;27487;-60
2021/07/11 03:53:18;;;;;;;2.00;1.42;;;20.50;71.80;;;;;;5188808;27;27625;-59
2021/07/11 03:56:08;;;;;;;1.50;1.40;;;20.50;71.80;;;;;;5185862;27;27389;-59
2021/07/11 03:58:56;;;;;;;1.63;1.30;;;20.50;71.90;;;;;;5174163;27;27508;-60
2021/07/11 04:01:46;;;;;;;1.83;1.20;;;20.50;72.00;;;;;;5159890;27;27423;-60
2021/07/11 04:04:41;;;;;;;2.83;1.45;;;20.50;72.30;;;;;;5188959;27;27407;-60
2021/07/11 04:07:33;;;;;;;2.78;1.50;;;20.50;72.20;;;;;;5186214;27;27374;-59
2021/07/11 04:10:27;;;;;;;3.70;1.42;;;20.50;72.30;;;;;;5188120;27;27855;-60
2021/07/11 04:13:17;;;;;;;5.72;1.67;;;20.40;72.40;;;;;;5189720;27;27568;-59
2021/07/11 04:16:09;;;;;;;2.08;1.42;;;20.40;72.30;;;;;;5159466;27;27479;-60
2021/07/11 04:18:59;;;;;;;3.97;1.20;;;20.40;73.20;;;;;;5189645;27;27408;-59
2021/07/11 04:21:50;;;;;;;1.40;1.10;;;20.40;72.40;;;;;;5156417;27;27498;-59
2021/07/11 04:24:40;;;;;;;3.97;1.20;;;20.40;72.60;;;;;;5189048;27;27437;-59
2021/07/11 04:27:31;;;;;;;3.13;1.60;;;20.40;72.70;;;;;;5173880;27;27523;-60
2021/07/11 04:30:18;;;;;;;1.73;1.40;;;20.40;72.80;;;;;;5185853;27;27330;-60
2021/07/11 04:33:11;;;;;;;1.70;1.48;;;20.40;72.90;;;;;;5173719;27;27981;-60
2021/07/11 04:36:01;;;;;;;2.70;1.55;;;20.30;72.80;;;;;;5159294;27;27327;-60
2021/07/11 04:38:48;;;;;;;2.47;1.23;;;20.40;73.00;;;;;;5173939;27;27500;-59
2021/07/11 04:41:40;;;;;;;1.17;1.08;;;20.30;73.00;;;;;;5189357;27;27370;-60
2021/07/11 04:44:31;;;;;;;3.42;1.40;;;20.30;73.10;;;;;;5188658;27;27480;-60
2021/07/11 04:47:18;;;;;;;1.52;1.10;;;20.30;73.30;;;;;;5173485;27;27362;-59
2021/07/11 04:50:08;;;;;;;1.50;1.40;;;20.30;73.30;;;;;;5188502;27;27417;-62
2021/07/11 04:52:57;;;;;;;1.77;1.48;;;20.30;73.40;;;;;;5185061;27;27690;-60
2021/07/11 04:55:50;;;;;;;1.73;1.20;;;20.30;73.40;;;;;;5188817;27;27858;-60
2021/07/11 04:58:38;;;;;;;2.25;1.45;;;20.30;73.60;;;;;;5189111;27;27383;-59
2021/07/11 05:01:25;;;;;;;3.17;1.25;;;20.30;73.70;;;;;;5185658;27;27092;-61
2021/07/11 05:04:16;;;;;;;7.18;1.45;;;20.30;73.70;;;;;;5187814;27;27600;-61
2021/07/11 05:07:03;;;;;;;1.88;1.55;;;20.20;73.80;;;;;;5173179;27;27385;-59
2021/07/11 05:09:53;;;;;;;1.98;1.33;;;20.30;74.10;;;;;;5188034;27;27431;-60
2021/07/11 05:12:42;;;;;;;4.50;1.70;;;20.30;74.40;;;;;;5170064;27;27327;-59
2021/07/11 05:15:33;;;;;;;3.92;1.30;;;20.30;74.40;;;;;;5188788;27;27595;-59
2021/07/11 05:18:23;;;;;;;3.08;1.48;;;20.30;74.50;;;;;;5169760;27;27314;-60
2021/07/11 05:21:13;;;;;;;3.33;1.70;;;20.30;74.70;;;;;;5188618;27;27471;-60
2021/07/11 05:24:03;;;;;;;1.70;1.60;;;20.30;75.10;;;;;;5154380;27;27449;-60
2021/07/11 05:26:53;;;;;;;4.72;1.50;;;20.40;75.50;;;;;;5173166;27;27422;-60
2021/07/11 05:29:42;;;;;;;1.73;1.60;;;20.40;75.40;;;;;;5186815;27;27388;-61
2021/07/11 05:32:32;;;;;;;2.40;1.83;;;20.40;75.50;;;;;;5172825;27;27528;-60
2021/07/11 05:35:22;;;;;;;4.45;2.10;;;20.40;75.80;;;;;;5188440;27;27412;-61
2021/07/11 05:38:12;;;;;;;5.63;1.90;;;20.50;74.60;;;;;;5158649;27;27432;-59
2021/07/11 05:40:58;;;;;;;4.85;1.88;;;20.50;74.70;;;;;;5172863;27;27473;-60
2021/07/11 05:43:47;;;;;;;7.13;2.00;;;20.50;74.70;;;;;;5188168;27;27536;-59
2021/07/11 05:46:41;;;;;;;1.95;1.75;;;20.50;75.20;;;;;;5184020;27;27512;-62
2021/07/11 05:49:32;;;;;;;3.60;1.60;;;20.50;75.70;;;;;;5183712;27;27461;-61
2021/07/11 05:52:19;;;;;;;3.38;1.80;;;20.60;75.70;;;;;;5187298;27;27412;-59
2021/07/11 05:55:07;;;;;;;7.28;1.95;;;20.60;75.80;;;;;;5154685;27;27351;-59
2021/07/11 05:57:54;;;;;;;1.95;1.75;;;20.60;76.30;;;;;;5187864;27;27014;-60
2021/07/11 06:00:42;;;;;;;5.20;1.60;;;20.70;76.80;;;;;;5172245;27;27548;-59
2021/07/11 06:03:30;;;;;;;3.08;2.00;;;20.70;77.30;;;;;;5187610;27;27435;-59
2021/07/11 06:06:25;;;;;;;2.30;1.83;;;20.80;77.50;;;;;;5154801;27;27519;-60
2021/07/11 06:09:12;;;;;;;4.47;1.90;;;20.80;78.00;;;;;;5172339;27;27435;-61
2021/07/11 06:12:00;;;;;;;3.15;2.15;;;20.80;78.40;;;;;;5168751;27;27517;-59
2021/07/11 06:14:47;;;;;;;2.75;1.80;;;20.90;78.70;;;;;;5154549;27;27492;-59
2021/07/11 06:17:34;;;;;;;3.95;1.80;;;21.00;78.60;;;;;;5186780;27;27418;-60
2021/07/11 06:20:22;;;;;;;2.80;2.30;;;21.00;79.00;;;;;;5172077;27;27360;-60
2021/07/11 06:23:11;;;;;;;2.50;1.88;;;21.10;79.40;;;;;;5186635;27;27621;-60
2021/07/11 06:25:59;;;;;;;2.63;2.08;;;21.10;78.90;;;;;;5168399;27;27410;-62
2021/07/11 06:28:48;;;;;;;3.58;1.55;;;21.10;78.90;;;;;;5186395;27;27362;-62
2021/07/11 06:31:37;;;;;;;2.65;2.00;;;21.10;79.00;;;;;;5186473;27;27534;-59
2021/07/11 06:34:25;;;;;;;4.68;2.10;;;21.20;79.80;;;;;;5187053;27;27318;-59
2021/07/11 06:37:11;;;;;;;2.70;1.98;;;21.20;80.00;;;;;;5182861;27;27394;-60
2021/07/11 06:39:59;;;;;;;4.50;2.45;;;21.30;80.20;;;;;;5186608;27;27339;-59
2021/07/11 06:42:49;;;;;;;3.15;2.00;;;21.30;80.00;;;;;;5157189;27;27529;-59
2021/07/11 06:45:44;;;;;;;3.03;2.10;;;21.40;80.20;;;;;;5185786;27;27761;-60
2021/07/11 06:48:32;;;;;;;4.53;2.05;;;21.40;80.40;;;;;;5153735;27;27371;-59
2021/07/11 06:51:18;;;;;;;3.15;2.03;;;21.50;80.40;;;;;;5169346;27;27380;-60
2021/07/11 06:54:05;;;;;;;2.55;2.05;;;21.60;80.60;;;;;;5186135;27;27504;-61
2021/07/11 06:56:52;;;;;;;2.33;1.90;;;21.80;80.40;;;;;;5171572;27;27442;-60
2021/07/11 06:59:40;;;;;;;3.58;2.40;;;22.00;77.60;;;;;;5186872;27;27450;-60
2021/07/11 07:02:29;;;;;;;2.55;2.25;;;22.30;77.20;;;;;;5167986;27;27423;-59
2021/07/11 07:05:16;;;;;;;4.00;2.05;;;22.60;76.10;;;;;;5186926;27;27487;-62
2021/07/11 07:08:03;;;;;;;7.10;2.10;;;22.90;75.90;;;;;;5182674;27;27466;-60
2021/07/11 07:10:54;;;;;;;3.13;2.25;;;23.10;75.30;;;;;;5187044;27;27420;-60
2021/07/11 07:13:43;;;;;;;3.55;2.00;;;23.30;74.20;;;;;;5185932;27;27474;-62
2021/07/11 07:16:32;;;;;;;3.50;2.25;;;23.10;74.90;;;;;;5187138;27;27401;-60
2021/07/11 07:19:20;;;;;;;2.47;1.90;;;23.00;77.00;;;;;;5186280;27;27380;-60
2021/07/11 07:22:07;;;;;;;5.45;1.60;;;23.00;77.60;;;;;;5186011;27;27482;-61
2021/07/11 07:24:54;;;;;;;1.83;1.73;;;22.90;77.70;;;;;;5185829;27;27503;-60
2021/07/11 07:27:42;;;;;;;2.33;2.13;;;23.00;78.00;;;;;;5182648;27;27373;-59
2021/07/11 07:30:33;;;;;;;2.15;1.95;;;23.10;77.40;;;;;;5186077;27;27705;-60
2021/07/11 07:33:21;;;;;;;3.78;2.05;;;23.40;76.20;;;;;;5186763;27;27443;-60
2021/07/11 07:36:09;;;;;;;5.45;1.95;;;23.60;76.50;;;;;;5171450;27;27335;-60
2021/07/11 07:38:58;;;;;;;3.15;1.80;;;23.70;77.10;;;;;;5186671;27;27413;-59
2021/07/11 07:41:49;;;;;;;2.60;1.83;;;23.70;77.60;;;;;;5185609;27;27317;-60
2021/07/11 07:44:40;;;;;;;2.42;1.77;;;23.70;77.40;;;;;;5138473;27;27477;-61
2021/07/11 07:47:37;;;;;;;1.67;1.33;;;23.70;76.90;;;;;;5163301;27;27451;-60
2021/07/11 07:50:30;;;;;;;2.47;1.63;;;23.70;76.00;;;;;;5189272;27;27379;-60
2021/07/11 07:53:22;;;;;;;2.28;1.77;;;23.80;75.80;;;;;;5188159;27;27408;-61
2021/07/11 07:56:10;;;;;;;4.60;1.98;;;23.80;75.70;;;;;;5189832;27;27384;-60
2021/07/11 07:59:03;;;;;;;3.47;1.40;;;23.90;75.50;;;;;;5190110;27;27426;-60
2021/07/11 08:01:51;;;;;;;2.67;1.70;;;24.00;75.30;;;;;;5157096;27;27416;-60
2021/07/11 08:04:43;;;;;;;3.20;1.70;;;23.90;74.50;;;;;;5174524;27;27419;-61
2021/07/11 08:07:31;;;;;;;2.33;1.65;;;24.00;74.70;;;;;;5171748;27;27972;-60
2021/07/11 08:10:19;;;;;;;1.88;1.52;;;24.00;74.80;;;;;;5189996;27;27381;-62
2021/07/11 08:13:06;;;;;;;1.83;1.48;;;24.00;74.70;;;;;;5186713;27;27529;-60
2021/07/11 08:15:54;;;;;;;3.20;1.70;;;24.00;74.40;;;;;;5186596;27;27421;-60
2021/07/11 08:18:42;;;;;;;1.92;1.75;;;24.00;73.80;;;;;;5189590;27;27326;-60
2021/07/11 08:21:29;;;;;;;2.42;1.63;;;24.10;73.50;;;;;;5190540;27;27326;-61
2021/07/11 08:24:16;;;;;;;2.70;1.70;;;24.10;73.40;;;;;;5190047;27;27358;-62
2021/07/11 08:27:06;;;;;;;2.45;1.75;;;24.20;73.60;;;;;;5190261;27;27425;-61
2021/07/11 08:29:54;;;;;;;2.40;1.88;;;24.20;73.70;;;;;;5174711;27;27403;-60
2021/07/11 08:32:41;;;;;;;2.15;1.40;;;24.40;73.60;;;;;;5189003;27;27482;-61
2021/07/11 08:35:35;;;;;;;2.22;1.63;;;24.70;73.30;;;;;;5186728;27;27462;-60
2021/07/11 08:38:23;;;;;;;1.45;1.30;;;25.10;72.60;;;;;;5190344;27;27448;-60
2021/07/11 08:41:13;;;;;;;2.20;1.63;;;25.30;73.00;;;;;;5188717;27;27870;-60
2021/07/11 08:44:00;;;;;;;1.58;1.48;;;25.50;72.60;;;;;;5174566;27;27503;-60
2021/07/11 08:46:48;;;;;;;4.55;1.80;;;25.60;72.50;;;;;;5189494;27;27463;-61
2021/07/11 08:49:39;;;;;;;1.90;1.63;;;25.70;71.40;;;;;;5156616;27;27334;-60
2021/07/11 08:52:28;;;;;;;3.75;1.88;;;25.70;72.70;;;;;;5186039;27;27470;-61
2021/07/11 08:55:17;;;;;;;1.65;1.40;;;25.60;72.80;;;;;;5174796;27;27439;-62
2021/07/11 08:58:05;;;;;;;2.03;1.52;;;25.50;73.10;;;;;;5174313;27;27457;-61
2021/07/11 09:00:54;;;;;;;2.50;1.70;;;25.50;72.70;;;;;;5188849;27;27478;-60
2021/07/11 09:03:42;;;;;;;2.70;1.67;;;25.50;72.00;;;;;;5159877;27;27405;-60
2021/07/11 09:06:55;;;;;;;2.30;1.80;;;25.40;72.50;;;;;;5189082;27;27418;-60
2021/07/11 09:09:44;;;;;;;1.80;1.52;;;25.30;73.30;;;;;;5172543;27;27331;-61
2021/07/11 09:12:39;;;;;;;2.47;1.60;;;25.30;72.60;;;;;;5189021;27;27417;-60
2021/07/11 09:15:35;;;;;;;1.73;1.33;;;25.30;72.10;;;;;;5171866;27;27858;-60
2021/07/11 09:18:25;;;;;;;2.63;1.67;;;25.30;71.60;;;;;;5188550;27;27489;-62
2021/07/11 09:21:17;;;;;;;2.13;1.70;;;25.40;71.40;;;;;;5189345;27;27534;-60
2021/07/11 09:24:20;;;;;;;1.92;1.20;;;25.50;70.70;;;;;;5173907;27;27412;-63
2021/07/11 09:27:10;;;;;;;2.40;1.58;;;25.50;70.40;;;;;;5188340;27;27838;-61
2021/07/11 09:30:15;;;;;;;3.72;1.45;;;25.60;70.70;;;;;;5170464;27;27337;-61
2021/07/11 09:33:06;;;;;;;1.80;1.50;;;25.60;70.40;;;;;;5188803;27;27470;-61
2021/07/11 09:36:19;;;;;;;2.35;1.27;;;25.60;70.10;;;;;;5173760;27;27454;-63
2021/07/11 09:39:07;;;;;;;2.25;1.45;;;25.50;70.10;;;;;;5185538;27;27421;-63
2021/07/11 09:41:56;;;;;;;1.95;1.27;;;25.40;69.10;;;;;;5170596;27;27324;-62
2021/07/11 09:44:44;;;;;;;1.52;1.35;;;25.30;69.30;;;;;;5170031;27;27332;-60
2021/07/11 09:47:35;;;;;;;4.40;1.70;;;25.10;70.00;;;;;;5184718;27;27490;-62
2021/07/11 09:50:23;;;;;;;3.10;1.60;;;25.00;70.80;;;;;;5155891;27;27961;-65
2021/07/11 09:53:20;;;;;;;3.33;1.80;;;24.80;71.60;;;;;;5170961;27;27346;-67
2021/07/11 09:56:29;;;;;;;7.97;2.72;;;24.70;70.90;;;;;;5173827;27;27409;-65
2021/07/11 09:59:20;;;;;;;3.67;1.98;;;24.60;70.90;;;;;;5188118;27;27392;-65
2021/07/11 10:02:09;;;;;;;3.25;2.13;;;24.40;71.30;;;;;;5187840;27;27420;-68
2021/07/11 10:04:57;;;;;;;3.65;1.90;;;24.20;72.60;;;;;;5188286;27;27384;-61
2021/07/11 10:07:48;;;;;;;2.65;1.65;;;24.10;72.70;;;;;;5173044;27;27472;-62
2021/07/11 10:10:38;;;;;;;3.42;2.10;;;24.00;72.90;;;;;;5187688;27;27387;-61
2021/07/11 10:13:28;;;;;;;5.65;2.17;;;24.00;72.80;;;;;;5187955;27;27432;-60
2021/07/11 10:16:16;;;;;;;3.53;2.10;;;23.90;72.60;;;;;;5188333;27;27364;-62
2021/07/11 10:19:04;;;;;;;2.75;1.88;;;23.90;73.00;;;;;;5188327;27;27394;-60
2021/07/11 10:21:52;;;;;;;5.25;2.30;;;23.80;73.20;;;;;;5184187;27;27387;-60
2021/07/11 10:24:46;;;;;;;2.22;1.75;;;23.80;74.60;;;;;;5188313;27;27410;-61
2021/07/11 10:27:36;;;;;;;4.68;1.77;;;23.80;74.70;;;;;;5184067;27;27412;-60
2021/07/11 10:30:31;;;;;;;3.10;1.90;;;23.90;74.60;;;;;;5187737;27;27378;-61
2021/07/11 10:33:21;;;;;;;2.13;1.70;;;23.90;74.60;;;;;;5172579;27;27415;-60
2021/07/11 10:36:09;;;;;;;5.05;1.98;;;23.80;74.50;;;;;;5188143;27;27405;-62
2021/07/11 10:39:02;;;;;;;2.40;1.85;;;23.80;75.10;;;;;;5188327;27;27427;-60
2021/07/11 10:41:51;;;;;;;2.08;1.45;;;23.70;74.70;;;;;;5188166;27;27489;-61
2021/07/11 10:44:47;;;;;;;4.53;1.88;;;23.70;75.40;;;;;;5187273;27;27341;-61
2021/07/11 10:47:45;;;;;;;2.45;1.60;;;23.70;76.30;;;;;;5184016;27;27315;-59
2021/07/11 10:50:40;;;;;;;2.45;1.60;;;23.70;76.50;;;;;;5159737;27;27426;-60
2021/07/11 10:53:34;;;;;;;1.65;1.55;;;23.80;77.50;;;;;;5186569;27;27513;-60
2021/07/11 10:56:21;;;;;;;2.00;1.90;;;24.00;77.60;;;;;;5188084;27;27459;-64
2021/07/11 10:59:09;;;;;;;1.80;1.67;;;24.20;78.00;;;;;;5186596;27;27867;-61
2021/07/11 11:01:57;;;;;;;1.63;1.40;;;24.60;78.60;;;;;;5172855;27;27376;-61
2021/07/11 11:04:46;;;;;;;2.10;1.58;;;25.00;77.80;;;;;;5172205;27;27368;-60
2021/07/11 11:07:48;;;;;;;1.75;1.65;;;25.30;77.10;;;;;;5187915;27;27414;-60
2021/07/11 11:10:36;;;;;;;1.63;1.52;;;25.50;79.00;;;;;;5187990;27;27846;-60
2021/07/11 11:13:26;;;;;;;1.92;1.50;;;25.70;79.30;;;;;;5187520;27;27418;-61
2021/07/11 11:16:29;;;;;;;2.75;1.45;;;25.80;77.20;;;;;;5183461;27;27391;-63
2021/07/11 11:19:22;;;;;;;2.22;1.83;;;25.90;79.40;;;;;;5172140;27;27503;-61
2021/07/11 11:22:16;;;;;;;1.35;1.25;;;26.00;81.20;;;;;;5176658;27;27921;-62
2021/07/11 11:25:07;;;;;;;2.85;1.48;;;26.10;80.80;;;;;;5157863;27;27408;-61
2021/07/11 11:27:55;;;;;;;1.65;1.55;;;26.10;81.20;;;;;;5187816;27;27399;-60
2021/07/11 11:30:43;;;;;;;2.78;1.63;;;26.10;79.20;;;;;;5172592;27;27454;-61
2021/07/11 11:33:48;;;;;;;1.20;1.05;;;26.10;80.00;;;;;;5188000;27;27424;-61
2021/07/11 11:36:49;;;;;;;3.00;1.52;;;26.20;79.50;;;;;;5187628;27;27400;-61
2021/07/11 11:39:37;;;;;;;2.38;1.42;;;26.30;80.50;;;;;;5172508;27;27377;-61
2021/07/11 11:42:25;;;;;;;1.98;1.15;;;26.50;82.10;;;;;;5190885;27;27338;-61
2021/07/11 11:45:19;;;;;;;2.45;1.25;;;26.80;83.30;;;;;;5186374;27;27379;-61
2021/07/11 11:48:13;;;;;;;2.22;1.40;;;27.00;82.00;;;;;;5176633;27;27331;-60
2021/07/11 11:51:16;;;;;;;2.40;1.50;;;27.20;80.90;;;;;;5190101;27;27440;-61
2021/07/11 11:54:12;;;;;;;1.33;1.23;;;27.20;75.20;;;;;;5161608;27;27406;-63
2021/07/11 11:57:00;;;;;;;1.95;1.40;;;27.10;76.60;;;;;;5190715;27;27465;-61
2021/07/11 11:59:53;;;;;;;1.85;1.27;;;27.00;77.30;;;;;;5171808;27;27327;-62
2021/07/11 12:02:41;;;;;;;1.40;1.30;;;26.90;79.10;;;;;;5176058;27;27335;-61
2021/07/11 12:05:34;;;;;;;1.20;1.10;;;26.90;79.20;;;;;;5186710;27;27328;-61
2021/07/11 12:08:31;;;;;;;1.50;1.20;;;26.80;77.60;;;;;;5187006;27;27857;-60
2021/07/11 12:11:26;;;;;;;1.23;1.05;;;26.80;78.80;;;;;;5174484;27;27382;-60
2021/07/11 12:14:17;;;;;;;1.17;1.08;;;26.80;78.40;;;;;;5189558;27;27386;-61
2021/07/11 12:17:12;;;;;;;2.15;1.38;;;26.70;77.60;;;;;;5189626;27;27486;-60
2021/07/11 12:20:06;;;;;;;1.20;1.10;;;26.80;77.10;;;;;;5160920;27;27948;-60
2021/07/11 12:22:54;;;;;;;1.48;1.10;;;27.00;77.70;;;;;;5189090;27;27444;-61
2021/07/11 12:25:45;;;;;;;1.88;1.08;;;27.10;78.60;;;;;;5189803;27;27402;-60
2021/07/11 12:28:40;;;;;;;2.15;1.30;;;27.20;78.30;;;;;;5190190;27;27401;-61
2021/07/11 12:31:30;;;;;;;1.42;1.02;;;27.20;77.30;;;;;;5185449;27;27472;-62
2021/07/11 12:34:18;;;;;;;1.27;1.02;;;27.30;77.90;;;;;;5190113;27;27331;-61
2021/07/11 12:37:07;;;;;;;1.30;1.20;;;27.20;77.70;;;;;;5190424;27;27490;-61
2021/07/11 12:39:57;;;;;;;1.10;1.00;;;27.20;76.30;;;;;;5175264;27;27486;-61
2021/07/11 12:43:34;;;;;;;1.10;1.00;;;27.20;74.90;;;;;;5189958;27;27481;-62
2021/07/11 12:47:17;;;;;;;1.40;1.20;;;27.20;75.00;;;;;;5189834;27;27498;-62
2021/07/11 12:50:50;;;;;;;3.33;1.23;;;27.10;76.20;;;;;;5189475;27;27465;-62
2021/07/11 12:54:25;;;;;;;1.60;1.35;;;27.00;75.70;;;;;;5186527;27;27682;-61
2021/07/11 12:57:53;;;;;;;1.98;1.48;;;26.90;73.70;;;;;;5186643;27;27413;-61
2021/07/11 13:00:47;;;;;;;1.42;1.33;;;26.80;73.30;;;;;;5185523;27;27365;-60
2021/07/11 13:03:35;;;;;;;1.52;1.25;;;26.70;72.60;;;;;;5189187;27;27518;-61
2021/07/11 13:06:35;;;;;;;1.00;0.95;;;26.60;74.40;;;;;;5174657;27;27480;-62
2021/07/11 13:09:23;;;;;;;1.35;1.25;;;26.60;74.10;;;;;;5189076;27;28024;-61
2021/07/11 13:12:11;;;;;;;1.17;1.08;;;26.60;73.40;;;;;;5170644;27;27510;-61
2021/07/11 13:15:08;;;;;;;3.17;1.20;;;26.60;72.40;;;;;;5189555;27;27455;-61
2021/07/11 13:17:56;;;;;;;1.92;1.20;;;26.60;73.10;;;;;;5174366;27;27416;-61
2021/07/11 13:20:55;;;;;;;1.52;1.33;;;26.60;74.30;;;;;;5188728;27;27421;-60
2021/07/11 13:23:44;;;;;;;1.45;1.00;;;26.70;73.80;;;;;;5188597;27;27474;-61
2021/07/11 13:26:32;;;;;;;1.50;1.40;;;26.70;74.30;;;;;;5189214;27;27403;-61
2021/07/11 13:29:22;;;;;;;2.17;1.00;;;26.70;72.60;;;;;;5186040;27;27491;-61
2021/07/11 13:32:10;;;;;;;1.75;1.20;;;26.70;74.90;;;;;;5188291;27;27412;-60
2021/07/11 13:35:06;;;;;;;1.10;0.95;;;26.70;75.40;;;;;;5188256;27;27388;-62
2021/07/11 13:38:00;;;;;;;3.17;1.33;;;26.70;76.00;;;;;;5188571;27;27415;-62
2021/07/11 13:40:52;;;;;;;1.48;0.95;;;26.70;75.30;;;;;;5185531;27;27441;-61
2021/07/11 13:43:49;;;;;;;2.10;1.15;;;26.70;74.80;;;;;;5184448;27;27541;-61
2021/07/11 13:46:41;;;;;;;1.30;1.08;;;26.70;73.30;;;;;;5185003;27;27425;-61
2021/07/11 13:49:30;;;;;;;2.70;1.40;;;26.80;75.40;;;;;;5184742;27;27453;-60
2021/07/11 13:52:30;;;;;;;2.92;1.30;;;26.90;78.20;;;;;;5185728;27;27319;-62
2021/07/11 13:55:36;;;;;;;1.58;1.30;;;26.90;76.20;;;;;;5133661;27;27447;-60
2021/07/11 13:59:09;;;;;;;1.65;1.50;;;26.90;75.40;;;;;;5146035;27;27475;-61
2021/07/11 14:02:05;;;;;;;1.83;1.40;;;26.90;73.20;;;;;;5132741;27;27407;-61
2021/07/11 14:04:53;;;;;;;3.92;1.20;;;26.80;75.00;;;;;;5146653;27;27527;-62
2021/07/11 14:07:55;;;;;;;1.35;1.08;;;26.70;75.40;;;;;;5146558;27;27326;-62
2021/07/11 14:10:45;;;;;;;2.85;1.27;;;26.70;74.50;;;;;;5142724;27;27515;-61
2021/07/11 14:13:37;;;;;;;1.98;1.30;;;26.80;74.60;;;;;;5128030;27;26936;-60
2021/07/11 14:16:29;;;;;;;3.58;1.02;;;27.00;74.60;;;;;;5131495;27;27518;-60
2021/07/11 14:19:32;;;;;;;1.02;0.98;;;27.10;75.10;;;;;;5142666;27;27886;-60
2021/07/11 14:22:22;;;;;;;0.90;0.90;;;27.20;75.20;;;;;;5146338;27;27447;-61
2021/07/11 14:25:16;;;;;;;3.55;1.15;;;27.20;74.10;;;;;;5142070;27;27427;-61
2021/07/11 14:28:13;;;;;;;1.42;1.13;;;27.20;73.60;;;;;;5146683;27;27391;-60
2021/07/11 14:31:14;;;;;;;1.13;0.95;;;27.30;73.60;;;;;;5131954;27;27342;-62
2021/07/11 14:34:13;;;;;;;0.93;0.90;;;27.20;72.90;;;;;;5131398;27;27482;-60
2021/07/11 14:37:05;;;;;;;1.27;1.00;;;27.20;70.70;;;;;;5130656;27;27414;-61
2021/07/11 14:40:01;;;;;;;0.98;0.90;;;27.20;70.00;;;;;;5146430;27;27394;-60
2021/07/11 14:42:58;;;;;;;1.25;1.00;;;27.10;69.90;;;;;;5146266;27;27384;-62
2021/07/11 14:45:50;;;;;;;1.92;0.88;;;27.10;70.10;;;;;;5142938;27;27373;-60
2021/07/11 14:48:49;;;;;;;1.35;0.80;;;27.00;70.50;;;;;;5115289;27;27552;-60
2021/07/11 14:51:39;;;;;;;0.90;0.90;;;26.90;67.70;;;;;;5146181;27;27371;-60
2021/07/11 14:54:38;;;;;;;1.20;1.08;;;26.80;69.80;;;;;;5164755;27;27847;-61
2021/07/11 14:57:38;;;;;;;1.90;1.20;;;26.80;71.00;;;;;;5173779;27;27493;-65
2021/07/11 15:00:39;;;;;;;2.90;1.23;;;26.80;72.50;;;;;;5187159;27;27417;-60